createdAt,value
2022-08-03T00:15:15.194Z,20.40
2022-08-03T00:17:53.500Z,20.40
2022-08-03T00:22:48.698Z,20.40
2022-08-03T00:42:56.598Z,20.20
2022-08-03T01:05:10.986Z,20.10
2022-08-03T01:23:07.086Z,19.80
2022-08-03T01:48:55.174Z,19.50
2022-08-03T02:04:00.614Z,19.40
2022-08-03T02:07:01.711Z,19.30
2022-08-03T02:09:22.091Z,19.30
2022-08-03T02:11:50.935Z,19.30
2022-08-03T02:14:19.479Z,19.30
2022-08-03T02:24:29.181Z,19.20
2022-08-03T02:32:12.452Z,19.10
2022-08-03T02:42:12.195Z,19.00
2022-08-03T02:44:43.671Z,18.90
2022-08-03T02:47:12.515Z,18.80
2022-08-03T02:49:50.451Z,18.80
2022-08-03T02:52:21.011Z,18.70
2022-08-03T02:54:51.058Z,18.70
2022-08-03T02:57:19.442Z,18.60
2022-08-03T02:59:47.123Z,18.50
2022-08-03T03:02:16.467Z,18.70
2022-08-03T03:05:51.147Z,18.70
2022-08-03T03:07:39.123Z,18.60
2022-08-03T03:10:22.966Z,18.60
2022-08-03T03:12:53.301Z,18.50
2022-08-03T03:15:20.400Z,18.60
2022-08-03T03:17:49.718Z,18.60
2022-08-03T03:20:29.046Z,18.60
2022-08-03T03:22:59.349Z,18.60
2022-08-03T03:25:26.721Z,18.60
2022-08-03T03:30:21.005Z,18.50
2022-08-03T03:32:47.790Z,18.60
2022-08-03T03:35:16.592Z,18.60
2022-08-03T03:40:11.185Z,18.60
2022-08-03T03:42:38.454Z,18.40
2022-08-03T03:45:09.367Z,18.50
2022-08-03T03:47:36.744Z,18.30
2022-08-03T03:50:05.200Z,18.50
2022-08-03T03:52:33.179Z,18.50
2022-08-03T03:55:01.255Z,18.40
2022-08-03T03:57:29.196Z,18.50
2022-08-03T04:02:23.348Z,18.50
2022-08-03T04:08:17.285Z,18.60
2022-08-03T04:11:00.159Z,18.60
2022-08-03T04:13:42.899Z,18.60
2022-08-03T04:16:12.558Z,18.60
2022-08-03T04:18:41.332Z,18.60
2022-08-03T04:21:12.580Z,18.70
2022-08-03T04:23:44.675Z,18.70
2022-08-03T04:26:14.445Z,18.80
2022-08-03T04:28:45.901Z,18.80
2022-08-03T04:31:14.656Z,18.80
2022-08-03T04:33:43.654Z,18.90
2022-08-03T04:36:14.795Z,19.00
2022-08-03T04:39:00.169Z,18.90
2022-08-03T04:41:27.736Z,19.10
2022-08-03T04:43:57.717Z,19.10
2022-08-03T04:46:29.438Z,19.20
2022-08-03T04:48:57.122Z,19.10
2022-08-03T04:51:24.693Z,19.10
2022-08-03T04:53:51.995Z,19.20
2022-08-03T04:56:19.702Z,19.10
2022-08-03T04:58:46.445Z,19.20
2022-08-03T05:03:40.509Z,19.40
2022-08-03T05:08:45.231Z,19.40
2022-08-03T05:11:14.009Z,19.50
2022-08-03T05:13:40.697Z,19.50
2022-08-03T05:18:35.858Z,19.40
2022-08-03T05:25:56.983Z,19.60
2022-08-03T05:30:50.954Z,19.70
2022-08-03T05:36:01.805Z,19.70
2022-08-03T05:38:34.721Z,19.70
2022-08-03T05:41:22.132Z,19.70
2022-08-03T05:43:54.229Z,19.90
2022-08-03T05:46:22.231Z,20.10
2022-08-03T05:48:49.083Z,20.20
2022-08-03T05:51:15.953Z,20.30
2022-08-03T05:53:43.485Z,20.60
2022-08-03T05:56:13.542Z,20.90
2022-08-03T05:58:45.266Z,21.10
2022-08-03T06:01:12.122Z,21.90
2022-08-03T06:03:38.929Z,23.30
2022-08-03T06:08:32.978Z,26.40
2022-08-03T06:10:59.767Z,27.60
2022-08-03T06:15:53.689Z,29.50
2022-08-03T06:18:20.620Z,30.30
2022-08-03T06:20:49.447Z,31.10
2022-08-03T06:23:18.005Z,31.50
2022-08-03T06:25:45.434Z,32.10
2022-08-03T06:28:42.431Z,32.40
2022-08-03T06:31:01.456Z,32.10
2022-08-03T06:34:22.862Z,31.90
2022-08-03T06:41:09.630Z,32.30
2022-08-03T06:44:02.695Z,31.60
2022-08-03T06:48:52.994Z,29.40
2022-08-03T06:51:19.847Z,28.30
2022-08-03T06:53:46.559Z,27.50
2022-08-03T06:56:13.340Z,26.80
2022-08-03T06:58:40.081Z,26.40
2022-08-03T07:01:06.856Z,26.00
2022-08-03T07:06:01.118Z,25.40
2022-08-03T07:11:01.726Z,25.30
2022-08-03T07:13:30.694Z,25.20
2022-08-03T07:15:57.535Z,25.20
2022-08-03T07:28:21.143Z,25.50
2022-08-03T07:30:48.075Z,25.60
2022-08-03T07:33:15.248Z,25.80
2022-08-03T07:35:42.160Z,26.00
2022-08-03T07:38:08.952Z,25.90
2022-08-03T07:40:35.870Z,26.00
2022-08-03T07:45:31.500Z,26.10
2022-08-03T07:47:58.247Z,26.20
2022-08-03T07:50:25.175Z,26.40
2022-08-03T07:52:53.654Z,26.50
2022-08-03T07:55:22.808Z,26.50
2022-08-03T07:58:12.489Z,26.60
2022-08-03T08:03:06.653Z,26.80
2022-08-03T08:05:33.970Z,26.80
2022-08-03T08:08:04.098Z,26.90
2022-08-03T08:10:32.641Z,27.10
2022-08-03T08:12:59.577Z,27.10
2022-08-03T08:15:26.365Z,27.20
2022-08-03T08:17:55.542Z,27.20
2022-08-03T08:20:31.744Z,27.40
2022-08-03T08:23:12.141Z,27.50
2022-08-03T08:25:51.472Z,27.50
2022-08-03T08:28:29.234Z,27.50
2022-08-03T08:31:00.154Z,27.60
2022-08-03T08:36:15.623Z,27.70
2022-08-03T08:41:13.146Z,27.80
2022-08-03T08:43:40.443Z,27.90
2022-08-03T08:46:11.775Z,27.90
2022-08-03T08:48:42.259Z,27.90
2022-08-03T08:53:38.444Z,28.00
2022-08-03T08:56:07.255Z,28.10
2022-08-03T08:58:38.696Z,28.00
2022-08-03T09:01:05.957Z,28.00
2022-08-03T09:03:35.592Z,28.00
2022-08-03T09:06:02.695Z,28.10
2022-08-03T09:08:31.128Z,28.20
2022-08-03T09:13:25.141Z,28.30
2022-08-03T09:16:14.424Z,28.40
2022-08-03T09:18:43.189Z,28.50
2022-08-03T09:21:30.754Z,28.40
2022-08-03T09:24:04.292Z,28.40
2022-08-03T09:26:32.718Z,28.40
2022-08-03T09:29:09.350Z,28.50
2022-08-03T09:31:43.145Z,28.40
2022-08-03T09:34:16.448Z,28.50
2022-08-03T09:36:46.513Z,28.60
2022-08-03T09:39:18.436Z,28.70
2022-08-03T09:41:48.119Z,28.80
2022-08-03T09:44:24.007Z,28.80
2022-08-03T09:46:56.606Z,29.00
2022-08-03T09:49:24.456Z,28.90
2022-08-03T09:54:39.109Z,29.10
2022-08-03T09:57:05.854Z,29.10
2022-08-03T09:59:33.839Z,29.10
2022-08-03T10:02:00.894Z,29.20
2022-08-03T10:07:10.999Z,29.20
2022-08-03T10:09:38.293Z,29.30
2022-08-03T10:12:13.710Z,29.20
2022-08-03T10:14:42.301Z,29.10
2022-08-03T10:17:12.328Z,29.20
2022-08-03T10:19:39.384Z,29.40
2022-08-03T10:22:19.613Z,29.60
2022-08-03T10:25:08.753Z,29.60
2022-08-03T10:27:38.997Z,29.50
2022-08-03T10:30:10.936Z,29.60
2022-08-03T10:32:42.127Z,29.80
2022-08-03T10:35:20.968Z,29.90
2022-08-03T10:38:04.126Z,29.90
2022-08-03T10:40:48.647Z,29.80
2022-08-03T10:43:40.842Z,29.90
2022-08-03T10:46:08.633Z,30.10
2022-08-03T10:48:36.202Z,30.10
2022-08-03T10:51:03.778Z,30.10
2022-08-03T10:53:52.837Z,30.10
2022-08-03T10:56:52.763Z,30.10
2022-08-03T10:59:39.672Z,30.00
2022-08-03T11:02:09.815Z,30.20
2022-08-03T11:04:36.526Z,30.40
2022-08-03T11:07:24.831Z,30.50
2022-08-03T11:09:53.531Z,30.30
2022-08-03T11:12:30.231Z,30.40
2022-08-03T11:15:05.045Z,30.40
2022-08-03T11:17:33.910Z,30.50
2022-08-03T11:20:13.954Z,30.40
2022-08-03T11:22:51.458Z,30.30
2022-08-03T11:28:42.220Z,30.50
2022-08-03T11:31:48.854Z,30.50
2022-08-03T11:34:15.887Z,30.60
2022-08-03T11:37:21.367Z,30.80
2022-08-03T11:39:50.585Z,31.00
2022-08-03T11:42:27.233Z,31.00
2022-08-03T11:44:58.635Z,31.10
2022-08-03T11:47:27.295Z,31.20
2022-08-03T11:49:59.088Z,31.10
2022-08-03T11:54:57.092Z,31.00
2022-08-03T11:59:01.773Z,31.10
2022-08-03T12:00:22.994Z,31.20
2022-08-03T12:02:56.006Z,31.40
2022-08-03T12:05:33.550Z,31.40
2022-08-03T12:10:33.719Z,31.70
2022-08-03T12:13:02.925Z,31.70
2022-08-03T12:15:33.876Z,31.70
2022-08-03T12:18:02.250Z,31.70
2022-08-03T12:20:35.055Z,31.70
2022-08-03T12:23:06.155Z,31.80
2022-08-03T12:25:39.123Z,31.60
2022-08-03T12:28:36.542Z,31.60
2022-08-03T12:31:06.338Z,31.60
2022-08-03T12:33:53.317Z,31.60
2022-08-03T12:36:20.431Z,31.80
2022-08-03T12:38:57.364Z,31.80
2022-08-03T12:41:35.877Z,31.70
2022-08-03T12:44:04.956Z,31.80
2022-08-03T12:46:37.895Z,32.10
2022-08-03T12:49:09.457Z,32.10
2022-08-03T12:51:37.817Z,32.10
2022-08-03T12:54:05.409Z,31.90
2022-08-03T12:56:32.244Z,32.00
2022-08-03T12:58:58.966Z,32.20
2022-08-03T13:01:27.820Z,32.30
2022-08-03T13:03:54.760Z,32.30
2022-08-03T13:06:25.451Z,32.50
2022-08-03T13:09:06.706Z,32.60
2022-08-03T13:14:20.740Z,32.50
2022-08-03T13:16:49.110Z,32.60
2022-08-03T13:22:02.168Z,32.40
2022-08-03T13:24:32.022Z,32.40
2022-08-03T13:26:59.817Z,32.40
2022-08-03T13:31:54.052Z,32.30
2022-08-03T13:34:23.383Z,32.20
2022-08-03T13:39:59.922Z,32.30
2022-08-03T13:44:53.427Z,32.10
2022-08-03T13:47:20.920Z,31.90
2022-08-03T13:49:59.848Z,32.00
2022-08-03T13:52:28.056Z,32.00
2022-08-03T13:58:03.561Z,31.80
2022-08-03T14:00:09.738Z,31.90
2022-08-03T14:02:36.542Z,32.00
2022-08-03T14:05:03.355Z,32.00
2022-08-03T14:07:30.105Z,32.10
2022-08-03T14:12:23.937Z,32.30
2022-08-03T14:19:52.551Z,32.30
2022-08-03T14:22:20.917Z,32.10
2022-08-03T14:24:47.658Z,32.30
2022-08-03T14:27:16.173Z,32.10
2022-08-03T14:29:42.953Z,32.20
2022-08-03T14:32:13.319Z,32.20
2022-08-03T14:34:40.992Z,32.30
2022-08-03T14:37:07.883Z,32.20
2022-08-03T14:44:48.957Z,31.90
2022-08-03T14:50:34.887Z,31.70
2022-08-03T14:52:30.679Z,31.50
2022-08-03T14:54:59.144Z,31.40
2022-08-03T14:57:26.353Z,31.30
2022-08-03T14:59:56.359Z,31.30
2022-08-03T15:02:25.214Z,31.20
2022-08-03T15:04:52.677Z,31.20
2022-08-03T15:07:20.670Z,31.10
2022-08-03T15:09:47.865Z,31.20
2022-08-03T15:12:14.718Z,31.20
2022-08-03T15:22:25.366Z,31.80
2022-08-03T15:26:02.272Z,31.90
2022-08-03T15:28:02.932Z,32.00
2022-08-03T15:30:31.436Z,32.10
2022-08-03T15:32:58.227Z,32.20
2022-08-03T15:35:25.046Z,32.20
2022-08-03T15:42:46.125Z,32.30
2022-08-03T15:47:44.577Z,32.20
2022-08-03T15:55:06.474Z,32.30
2022-08-03T16:00:20.445Z,32.40
2022-08-03T16:03:00.597Z,32.40
2022-08-03T16:13:00.078Z,32.10
2022-08-03T16:17:54.757Z,32.00
2022-08-03T16:20:31.535Z,32.00
2022-08-03T16:23:10.643Z,31.90
2022-08-03T16:25:39.390Z,32.00
2022-08-03T16:30:42.784Z,32.40
2022-08-03T16:33:10.243Z,32.40
2022-08-03T16:35:37.101Z,32.50
2022-08-03T16:38:10.007Z,32.60
2022-08-03T16:43:18.515Z,32.60
2022-08-03T16:45:47.529Z,32.60
2022-08-03T16:48:15.299Z,32.70
2022-08-03T16:50:42.226Z,32.80
2022-08-03T16:53:15.663Z,32.80
2022-08-03T16:55:54.013Z,32.70
2022-08-03T16:58:41.764Z,32.80
2022-08-03T17:01:22.217Z,32.70
2022-08-03T17:04:02.760Z,32.50
2022-08-03T17:06:36.052Z,32.40
2022-08-03T17:09:08.948Z,32.50
2022-08-03T17:11:38.804Z,32.40
2022-08-03T17:14:12.062Z,32.40
2022-08-03T17:19:21.925Z,32.30
2022-08-03T17:21:58.111Z,32.10
2022-08-03T17:24:41.391Z,31.90
2022-08-03T17:28:42.241Z,31.80
2022-08-03T17:30:09.460Z,31.60
2022-08-03T17:32:42.562Z,31.50
2022-08-03T17:35:10.852Z,31.50
2022-08-03T17:45:20.524Z,31.20
2022-08-03T17:47:57.083Z,31.20
2022-08-03T17:50:33.811Z,31.20
2022-08-03T17:53:23.688Z,31.10
2022-08-03T17:56:42.531Z,31.10
2022-08-03T17:59:11.271Z,30.90
2022-08-03T18:02:22.368Z,30.80
2022-08-03T18:05:02.728Z,30.80
2022-08-03T18:07:59.389Z,30.80
2022-08-03T18:10:34.882Z,30.80
2022-08-03T18:13:10.477Z,30.80
2022-08-03T18:15:50.125Z,30.70
2022-08-03T18:18:32.277Z,30.60
2022-08-03T18:21:04.697Z,30.60
2022-08-03T18:23:36.843Z,30.60
2022-08-03T18:26:07.410Z,30.40
2022-08-03T18:28:40.998Z,30.40
2022-08-03T18:31:11.835Z,30.40
2022-08-03T18:34:19.273Z,30.20
2022-08-03T18:36:30.018Z,30.00
2022-08-03T18:39:02.784Z,30.10
2022-08-03T18:41:33.008Z,30.00
2022-08-03T18:49:29.186Z,29.80
2022-08-03T18:52:12.453Z,29.70
2022-08-03T18:55:20.022Z,29.60
2022-08-03T19:00:17.134Z,29.50
2022-08-03T19:03:01.751Z,29.30
2022-08-03T19:08:26.137Z,29.10
2022-08-03T19:13:51.304Z,29.00
2022-08-03T19:16:30.568Z,28.90
2022-08-03T19:19:00.391Z,28.80
2022-08-03T19:21:30.211Z,28.80
2022-08-03T19:24:05.581Z,28.80
2022-08-03T19:26:38.381Z,28.60
2022-08-03T19:29:15.156Z,28.50
2022-08-03T19:31:58.804Z,28.50
2022-08-03T19:34:27.576Z,28.50
2022-08-03T19:36:56.221Z,28.30
2022-08-03T19:41:55.558Z,28.10
2022-08-03T19:44:29.974Z,28.00
2022-08-03T19:47:11.539Z,27.90
2022-08-03T19:49:57.749Z,27.60
2022-08-03T19:52:35.477Z,27.40
2022-08-03T19:55:12.333Z,27.20
2022-08-03T19:57:42.233Z,27.10
2022-08-03T20:00:12.439Z,26.90
2022-08-03T20:02:41.356Z,26.70
2022-08-03T20:05:11.942Z,26.70
2022-08-03T20:07:47.918Z,26.70
2022-08-03T20:10:16.670Z,26.70
2022-08-03T20:12:45.165Z,26.70
2022-08-03T20:15:12.457Z,27.00
2022-08-03T20:17:56.854Z,26.90
2022-08-03T20:20:34.445Z,26.60
2022-08-03T20:23:06.730Z,26.60
2022-08-03T20:28:35.076Z,26.30
2022-08-03T20:31:16.677Z,26.30
2022-08-03T20:33:46.655Z,26.20
2022-08-03T20:36:18.049Z,26.20
2022-08-03T20:46:30.006Z,25.60
2022-08-03T20:48:58.966Z,25.60
2022-08-03T20:51:49.585Z,25.50
2022-08-03T20:54:22.930Z,25.40
2022-08-03T20:57:00.724Z,25.40
2022-08-03T20:59:46.798Z,25.30
2022-08-03T21:02:19.818Z,25.20
2022-08-03T21:08:04.336Z,25.30
2022-08-03T21:10:15.465Z,25.20
2022-08-03T21:13:01.458Z,29.00
2022-08-03T21:16:11.893Z,25.00
2022-08-03T21:18:45.546Z,25.00
2022-08-03T21:21:15.279Z,24.90
2022-08-03T21:23:49.062Z,24.80
2022-08-03T21:26:21.545Z,24.80
2022-08-03T21:28:49.580Z,24.70
2022-08-03T21:31:22.288Z,24.60
2022-08-03T21:33:55.079Z,24.60
2022-08-03T21:36:21.879Z,24.60
2022-08-03T21:41:29.121Z,24.50
2022-08-03T21:43:56.120Z,24.40
2022-08-03T21:46:23.681Z,24.30
2022-08-03T21:50:04.203Z,24.30
2022-08-03T21:51:49.732Z,24.20
2022-08-03T21:54:17.766Z,24.20
2022-08-03T21:56:47.948Z,24.10
2022-08-03T21:59:20.027Z,24.10
2022-08-03T22:01:55.271Z,24.00
2022-08-03T22:04:50.626Z,23.90
2022-08-03T22:07:12.606Z,23.90
2022-08-03T22:17:11.383Z,23.70
2022-08-03T22:19:38.205Z,23.70
2022-08-03T22:22:09.243Z,23.70
2022-08-03T22:24:36.622Z,23.70
2022-08-03T22:27:22.746Z,23.60
2022-08-03T22:29:51.914Z,23.50
2022-08-03T22:32:19.523Z,23.50
2022-08-03T22:34:47.640Z,23.40
2022-08-03T22:37:18.118Z,23.40
2022-08-03T22:39:45.457Z,23.30
2022-08-03T22:42:12.941Z,23.30
2022-08-03T22:44:40.263Z,23.20
2022-08-03T22:47:07.430Z,23.20
2022-08-03T22:49:35.876Z,23.20
2022-08-03T22:52:03.057Z,23.10
2022-08-03T22:54:32.329Z,23.10
2022-08-03T22:56:59.125Z,23.10
2022-08-03T22:59:40.244Z,23.20
2022-08-03T23:02:20.628Z,23.00
2022-08-03T23:05:03.168Z,23.00
2022-08-03T23:07:39.910Z,22.90
2022-08-03T23:10:09.418Z,22.90
2022-08-03T23:12:38.369Z,22.90
2022-08-03T23:15:12.933Z,22.70
2022-08-03T23:17:58.192Z,22.80
2022-08-03T23:20:26.674Z,22.60
2022-08-03T23:22:55.167Z,22.60
2022-08-03T23:25:22.324Z,22.60
2022-08-03T23:28:04.550Z,22.60
2022-08-03T23:30:34.740Z,22.50
2022-08-03T23:33:04.015Z,22.50
2022-08-03T23:36:27.630Z,22.40
2022-08-03T23:38:37.409Z,22.50
2022-08-03T23:41:05.019Z,22.40
2022-08-03T23:43:52.263Z,22.40
2022-08-03T23:46:25.656Z,22.30
2022-08-03T23:48:53.696Z,22.20
2022-08-03T23:52:04.587Z,22.30
2022-08-03T23:54:42.997Z,22.20
